K.pluto — 3EYQ3 — position and weather

sailwx.info

Track history (hours):
 
Tides and Currents Weather Stations Pressure Air Temp Water Temp Dewpoint Dewpoint Depression Visibility Wind Speed Wind Dir Waves Ship Positions

K.pluto

Last reported at 2016-Jun-23 15:24 UTC. Time now 2016-Jun-30 03:24 UTC.
Position N 36°45' E 123°38'.

Length 170 m; draft 7.6 m.

Type: Cargo ship. MMSI: 373504000.

Date/timePositionNaut miles runAvg speedWind from/ knotsBaromVisibWave heightAir tempDewpointWater temp
2016-Jun-23 15:24N 36°45' E 123°38'1112.7
2016-Jun-23 14:33N 36°55' E 123°33'25012.2
2016-Jun-22 18:11N 39°46' E 119°41'710.9
2016-Jun-22 17:34N 39°52' E 119°38'3 1.4
2016-Jun-22 15:19N 39°54' E 119°35'0 0.0
2016-Jun-22 14:13N 39°54' E 119°35'0 0.0
2016-Jun-22 13:31N 39°54' E 119°35'0 0.0
2016-Jun-22 12:31N 39°54' E 119°35'0 0.0
2016-Jun-22 11:28N 39°54' E 119°35'0 0.0
2016-Jun-22 10:25N 39°54' E 119°35'0 0.0
2016-Jun-22 09:31N 39°54' E 119°35'0 0.0
2016-Jun-22 08:31N 39°54' E 119°35'0 0.0
2016-Jun-22 07:31N 39°54' E 119°35'0 0.0
2016-Jun-22 06:25N 39°54' E 119°35'0 0.0
2016-Jun-22 05:25N 39°54' E 119°35'0 0.0
2016-Jun-22 04:31N 39°54' E 119°35'0 0.0
2016-Jun-22 03:25N 39°54' E 119°35'0 0.0
2016-Jun-22 02:07N 39°54' E 119°35'0 0.0
2016-Jun-22 00:31N 39°54' E 119°35'0 0.0
2016-Jun-21 23:19N 39°54' E 119°35'0 0.0
2016-Jun-21 22:25N 39°54' E 119°35'0 0.0
2016-Jun-21 21:31N 39°54' E 119°35'0 0.0
2016-Jun-21 20:31N 39°54' E 119°35'0 0.0
2016-Jun-21 19:31N 39°54' E 119°35'0 0.0
2016-Jun-21 18:19N 39°54' E 119°35'0 0.0
2016-Jun-21 17:31N 39°54' E 119°35'0 0.0
2016-Jun-21 16:31N 39°54' E 119°35'0 0.0
2016-Jun-21 15:31N 39°54' E 119°35'0 0.0
2016-Jun-21 13:31N 39°54' E 119°35'0 0.0
2016-Jun-21 12:25N 39°54' E 119°35'0 0.0
2016-Jun-21 11:25N 39°54' E 119°35'0 0.0
2016-Jun-21 10:31N 39°54' E 119°35'0 0.0
2016-Jun-21 09:25N 39°54' E 119°35'0 0.0
2016-Jun-21 08:31N 39°54' E 119°35'0 0.0
2016-Jun-21 07:31N 39°54' E 119°35'0 0.0
2016-Jun-21 06:31N 39°54' E 119°35'0 0.0
2016-Jun-21 04:31N 39°54' E 119°35'0 0.0
2016-Jun-21 02:31N 39°54' E 119°35'0 0.0
2016-Jun-21 01:31N 39°54' E 119°35'0 0.0
2016-Jun-21 00:31N 39°54' E 119°35'0 0.0
2016-Jun-20 20:13N 39°54' E 119°35'0 0.0
2016-Jun-20 18:31N 39°54' E 119°35'0 0.0
2016-Jun-20 17:31N 39°54' E 119°35'0 0.0
2016-Jun-20 16:31N 39°54' E 119°35'0 0.0
2016-Jun-20 15:31N 39°54' E 119°35'0 0.0
2016-Jun-20 14:31N 39°54' E 119°35'0 0.0
2016-Jun-20 13:31N 39°54' E 119°35'0 0.0
2016-Jun-20 12:31N 39°54' E 119°35'0 0.0
2016-Jun-20 11:25N 39°54' E 119°35'0 0.0
2016-Jun-20 10:25N 39°54' E 119°35'0 0.0
2016-Jun-20 09:31N 39°54' E 119°35'0 0.0
2016-Jun-20 08:31N 39°54' E 119°35'0 0.0
2016-Jun-20 07:25N 39°54' E 119°35'0 0.0
2016-Jun-20 06:31N 39°54' E 119°35'0 0.0
2016-Jun-20 05:19N 39°54' E 119°35'0 0.0
2016-Jun-20 04:31N 39°54' E 119°35'0 0.0
2016-Jun-20 03:19N 39°54' E 119°35'0 0.0
2016-Jun-20 02:31N 39°54' E 119°35'0 0.0
2016-Jun-20 01:31N 39°54' E 119°35'0 0.0
2016-Jun-20 00:31N 39°54' E 119°35'2 1.6
2016-Jun-19 23:33N 39°54' E 119°37'6 6.1
2016-Jun-19 22:33N 39°48' E 119°41'11312.6
2016-Jun-19 13:33N 38°25' E 121°19'1311.0
2016-Jun-19 12:24N 38°13' E 121°25'3612.6
2016-Jun-19 09:33N 37°37' E 121°27'  
2016-Jun-17 01:24N 37°35' E 121°24'6 7.0
2016-Jun-17 00:32N 37°39' E 121°30'36 4.3
2016-Jun-16 16:04N 37°46' E 122°14'612.3
2016-Jun-16 15:33N 37°45' E 122°22'1212.0
2016-Jun-16 14:33N 37°43' E 122°37'1211.6
2016-Jun-16 13:33N 37°34' E 122°46'10 9.6
2016-Jun-16 12:33N 37°25' E 122°52'1313.0
2016-Jun-16 11:33N 37°12' E 122°52'1313.3
2016-Jun-16 10:33N 36°59' E 122°52'1313.5
2016-Jun-16 09:33N 36°46' E 122°52'1313.5
2016-Jun-16 08:33N 36°32' E 122°52'1413.5
2016-Jun-16 07:31N 36°18' E 122°52'  
2016-Jun-13 16:26N 22°54' E 119°55'1213.9
2016-Jun-13 15:33N 22°41' E 119°55'  
Track history (hours):
 
Tides and Currents Weather Stations Pressure Air Temp Water Temp Dewpoint Dewpoint Depression Visibility Wind Speed Wind Dir Waves Ship Positions

K.pluto

Last reported at 2016-Jun-23 15:24 UTC. Time now 2016-Jun-30 03:24 UTC.
Position N 36°45' E 123°38'.

Length 170 m; draft 7.6 m.

Type: Cargo ship. MMSI: 373504000.

Date/timePositionNaut miles runAvg speedWind from/ knotsBaromVisibWave heightAir tempDewpointWater temp
2016-Jun-23 15:24N 36°45' E 123°38'1112.7
2016-Jun-23 14:33N 36°55' E 123°33'25012.2
2016-Jun-22 18:11N 39°46' E 119°41'710.9
2016-Jun-22 17:34N 39°52' E 119°38'3 1.4
2016-Jun-22 15:19N 39°54' E 119°35'0 0.0
2016-Jun-22 14:13N 39°54' E 119°35'0 0.0
2016-Jun-22 13:31N 39°54' E 119°35'0 0.0
2016-Jun-22 12:31N 39°54' E 119°35'0 0.0
2016-Jun-22 11:28N 39°54' E 119°35'0 0.0
2016-Jun-22 10:25N 39°54' E 119°35'0 0.0
2016-Jun-22 09:31N 39°54' E 119°35'0 0.0
2016-Jun-22 08:31N 39°54' E 119°35'0 0.0
2016-Jun-22 07:31N 39°54' E 119°35'0 0.0
2016-Jun-22 06:25N 39°54' E 119°35'0 0.0
2016-Jun-22 05:25N 39°54' E 119°35'0 0.0
2016-Jun-22 04:31N 39°54' E 119°35'0 0.0
2016-Jun-22 03:25N 39°54' E 119°35'0 0.0
2016-Jun-22 02:07N 39°54' E 119°35'0 0.0
2016-Jun-22 00:31N 39°54' E 119°35'0 0.0
2016-Jun-21 23:19N 39°54' E 119°35'0 0.0
2016-Jun-21 22:25N 39°54' E 119°35'0 0.0
2016-Jun-21 21:31N 39°54' E 119°35'0 0.0
2016-Jun-21 20:31N 39°54' E 119°35'0 0.0
2016-Jun-21 19:31N 39°54' E 119°35'0 0.0
2016-Jun-21 18:19N 39°54' E 119°35'0 0.0
2016-Jun-21 17:31N 39°54' E 119°35'0 0.0
2016-Jun-21 16:31N 39°54' E 119°35'0 0.0
2016-Jun-21 15:31N 39°54' E 119°35'0 0.0
2016-Jun-21 13:31N 39°54' E 119°35'0 0.0
2016-Jun-21 12:25N 39°54' E 119°35'0 0.0
2016-Jun-21 11:25N 39°54' E 119°35'0 0.0
2016-Jun-21 10:31N 39°54' E 119°35'0 0.0
2016-Jun-21 09:25N 39°54' E 119°35'0 0.0
2016-Jun-21 08:31N 39°54' E 119°35'0 0.0
2016-Jun-21 07:31N 39°54' E 119°35'0 0.0
2016-Jun-21 06:31N 39°54' E 119°35'0 0.0
2016-Jun-21 04:31N 39°54' E 119°35'0 0.0
2016-Jun-21 02:31N 39°54' E 119°35'0 0.0
2016-Jun-21 01:31N 39°54' E 119°35'0 0.0
2016-Jun-21 00:31N 39°54' E 119°35'0 0.0
2016-Jun-20 20:13N 39°54' E 119°35'0 0.0
2016-Jun-20 18:31N 39°54' E 119°35'0 0.0
2016-Jun-20 17:31N 39°54' E 119°35'0 0.0
2016-Jun-20 16:31N 39°54' E 119°35'0 0.0
2016-Jun-20 15:31N 39°54' E 119°35'0 0.0
2016-Jun-20 14:31N 39°54' E 119°35'0 0.0
2016-Jun-20 13:31N 39°54' E 119°35'0 0.0
2016-Jun-20 12:31N 39°54' E 119°35'0 0.0
2016-Jun-20 11:25N 39°54' E 119°35'0 0.0
2016-Jun-20 10:25N 39°54' E 119°35'0 0.0
2016-Jun-20 09:31N 39°54' E 119°35'0 0.0
2016-Jun-20 08:31N 39°54' E 119°35'0 0.0
2016-Jun-20 07:25N 39°54' E 119°35'0 0.0
2016-Jun-20 06:31N 39°54' E 119°35'0 0.0
2016-Jun-20 05:19N 39°54' E 119°35'0 0.0
2016-Jun-20 04:31N 39°54' E 119°35'0 0.0
2016-Jun-20 03:19N 39°54' E 119°35'0 0.0
2016-Jun-20 02:31N 39°54' E 119°35'0 0.0
2016-Jun-20 01:31N 39°54' E 119°35'0 0.0
2016-Jun-20 00:31N 39°54' E 119°35'2 1.6
2016-Jun-19 23:33N 39°54' E 119°37'6 6.1
2016-Jun-19 22:33N 39°48' E 119°41'11312.6
2016-Jun-19 13:33N 38°25' E 121°19'1311.0
2016-Jun-19 12:24N 38°13' E 121°25'3612.6
2016-Jun-19 09:33N 37°37' E 121°27'  
2016-Jun-17 01:24N 37°35' E 121°24'6 7.0
2016-Jun-17 00:32N 37°39' E 121°30'36 4.3
2016-Jun-16 16:04N 37°46' E 122°14'612.3
2016-Jun-16 15:33N 37°45' E 122°22'1212.0
2016-Jun-16 14:33N 37°43' E 122°37'1211.6
2016-Jun-16 13:33N 37°34' E 122°46'10 9.6
2016-Jun-16 12:33N 37°25' E 122°52'1313.0
2016-Jun-16 11:33N 37°12' E 122°52'1313.3
2016-Jun-16 10:33N 36°59' E 122°52'1313.5
2016-Jun-16 09:33N 36°46' E 122°52'1313.5
2016-Jun-16 08:33N 36°32' E 122°52'1413.5
2016-Jun-16 07:31N 36°18' E 122°52'  
2016-Jun-13 16:26N 22°54' E 119°55'1213.9
2016-Jun-13 15:33N 22°41' E 119°55'  

Dump ship's entire track history